SLER weather

Cerrillos Airport
Hernando Siles, Chuquisaca Department, Bolivia

Public forecast

Using degrees Celsius for public forecast. Weather courtesy of forecast.io.

Closest aviation weather report (METAR) to Cerrillos Airport

Report is more than 6 hours old.

Closest report is Monteagudo Airport, 12.1 nm (22.4 km) NNE. Retrieved 2019/10/13 14:00 UTC (10 days ago):

SLAG 131400Z 01005KT 9999 NSC 30/18 Q1010

Closest aviation forecast (TAF) to Cerrillos Airport

Forecast is more than 12 hours old.

Closest forecast is Juana Azurduy De Padilla Airport, 93.4 nm (173.0 km) NW. Retrieved 2016/05/13 12:12 UTC (3 years ago):

TAF COR SLSU 131000Z 1312/1412 00000KT 9999 BKN010 TX21/1319Z TN08/1411Z BECMG 1313/1315 SCT013 BECMG 1315/1317 03010KT FEW020 BECMG 1402/1404 00000KT